Elton, Wisconsin
Current Conditions -  °F | °C
As of 9:15 PM on Thursday 27 Nov 2014 (Local Time) from KAIG Reporting Station
Clear Clear  
Wind Chill: -9°   Ceiling: Unl
Heat Index: -9°   Visibility: 10mi
Dew Point: -12°   Wind: 0mph
Humidity: 87%   Direction: NA
Pressure: 30.28"   Gusts: NA
Location:  45.17°N, 88.89°W
Report Text: KAIG 280315Z AUTO 00000KT 10SM CLR M23/M24 A3028 RMK AO2 T12271243
Loading
Personal Weather Stations






























Interactive Weather Map New forecast layout! Learn more

10-Day Weather Forecast

Advertisements
Track Severe Weather on mobile